Time;durP1;ratioP1;P1;durP2;ratioP2;P2;SDS_P1;SDS_P2;PMS_P1;PMS_P2;Temp;Humidity;BMP_temperature;BMP_pressure;BME280_temperature;BME280_humidity;BME280_pressure;Samples;Min_cycle;Max_cycle;Signal;HPM_P1;HPM_P2
2021/01/24 00:01:01;;;;;;;1.63;1.52;;;;;;;3.20;76.95;96442.19;5092009;28;20514;-63
2021/01/24 00:03:29;;;;;;;1.80;1.65;;;;;;;3.32;76.93;96450.19;5091897;28;20490;-63
2021/01/24 00:05:56;;;;;;;2.30;1.70;;;;;;;3.40;76.92;96445.56;5091570;28;20072;-64
2021/01/24 00:08:23;;;;;;;4.70;1.80;;;;;;;3.37;77.00;96448.56;5091642;28;20139;-64
2021/01/24 00:10:49;;;;;;;2.05;1.90;;;;;;;3.34;76.82;96451.56;5095375;28;20051;-64
2021/01/24 00:13:16;;;;;;;2.08;1.85;;;;;;;3.32;77.08;96460.63;5095881;28;20048;-63
2021/01/24 00:15:43;;;;;;;2.45;2.20;;;;;;;3.34;77.05;96464.63;5095253;28;20046;-63
2021/01/24 00:18:10;;;;;;;1.75;1.65;;;;;;;3.37;77.08;96472.06;5095578;28;20047;-64
2021/01/24 00:20:37;;;;;;;1.95;1.77;;;;;;;3.33;77.22;96467.47;5095589;28;20044;-64
2021/01/24 00:23:03;;;;;;;3.03;1.90;;;;;;;3.35;77.29;96466.25;5095418;28;20044;-64
2021/01/24 00:25:30;;;;;;;3.15;2.08;;;;;;;3.34;77.49;96469.06;5095162;28;20042;-63
2021/01/24 00:27:57;;;;;;;2.35;2.13;;;;;;;3.25;77.76;96473.69;5095370;28;20097;-63
2021/01/24 00:30:24;;;;;;;2.60;1.80;;;;;;;3.25;77.86;96470.28;5095413;28;20052;-64
2021/01/24 00:32:51;;;;;;;2.15;1.85;;;;;;;3.26;77.90;96482.31;5095387;28;20040;-64
2021/01/24 00:35:18;;;;;;;2.03;1.65;;;;;;;3.27;77.78;96484.75;5095046;28;20048;-64
2021/01/24 00:37:45;;;;;;;1.70;1.55;;;;;;;3.25;77.43;96481.53;5094903;28;20047;-63
2021/01/24 00:40:12;;;;;;;1.95;1.75;;;;;;;3.23;77.65;96483.56;5095185;28;20051;-64
2021/01/24 00:42:39;;;;;;;1.92;1.77;;;;;;;3.26;77.51;96488.34;5095162;28;20055;-63
2021/01/24 00:45:08;;;;;;;1.70;1.60;;;;;;;3.22;77.00;96500.19;5093725;28;20125;-63
2021/01/24 00:47:35;;;;;;;3.25;1.70;;;;;;;3.16;76.84;96495.81;5095121;28;20033;-64
2021/01/24 00:50:05;;;;;;;1.67;1.52;;;;;;;3.06;76.98;96503.22;5094724;28;20040;-64
2021/01/24 00:52:32;;;;;;;1.60;1.42;;;;;;;3.05;77.28;96493.78;5094948;28;20044;-64
2021/01/24 00:54:58;;;;;;;1.27;1.17;;;;;;;3.03;77.18;96504.44;5094696;28;20482;-64
2021/01/24 00:57:25;;;;;;;1.25;1.15;;;;;;;2.99;76.90;96511.06;5095033;28;20040;-63
2021/01/24 00:59:52;;;;;;;1.58;1.48;;;;;;;2.87;76.95;96518.69;5094940;28;20046;-64
2021/01/24 01:02:18;;;;;;;1.35;1.25;;;;;;;2.81;77.25;96511.63;5094932;28;20056;-64
2021/01/24 01:04:45;;;;;;;1.20;1.10;;;;;;;2.70;76.88;96510.44;5094610;28;20040;-63
2021/01/24 01:07:13;;;;;;;1.85;1.63;;;;;;;2.72;77.29;96524.06;5094804;28;20058;-64
2021/01/24 01:09:41;;;;;;;1.50;1.40;;;;;;;2.77;77.29;96520.88;5094884;28;20044;-63
2021/01/24 01:12:07;;;;;;;2.35;1.75;;;;;;;2.70;77.00;96528.69;5094752;28;20047;-64
2021/01/24 01:14:34;;;;;;;1.40;1.30;;;;;;;2.67;76.93;96536.91;5094437;28;20048;-63
2021/01/24 01:17:01;;;;;;;1.65;1.45;;;;;;;2.60;77.10;96538.69;5094487;28;20048;-64
2021/01/24 01:19:28;;;;;;;1.15;1.05;;;;;;;2.57;77.00;96544.34;5094565;28;20055;-64
2021/01/24 01:21:54;;;;;;;1.40;1.30;;;;;;;2.48;76.69;96556.72;5091877;28;20048;-64
2021/01/24 01:24:22;;;;;;;1.25;1.15;;;;;;;2.46;76.44;96556.13;5094298;28;20048;-64
2021/01/24 01:26:49;;;;;;;1.40;1.30;;;;;;;2.45;76.51;96569.38;5094333;28;20040;-64
2021/01/24 01:29:15;;;;;;;1.30;1.20;;;;;;;2.54;76.47;96580.44;5094450;28;20044;-64
2021/01/24 01:31:42;;;;;;;1.40;1.30;;;;;;;2.42;75.96;96572.38;5094348;28;20036;-64
2021/01/24 01:34:09;;;;;;;1.60;1.50;;;;;;;2.37;76.08;96586.00;5094101;28;20456;-64
2021/01/24 01:36:35;;;;;;;1.42;1.33;;;;;;;2.33;76.45;96589.19;5094417;28;20043;-64
2021/01/24 01:39:02;;;;;;;1.70;1.60;;;;;;;2.31;76.39;96604.22;5094242;28;20051;-64
2021/01/24 01:41:30;;;;;;;1.40;1.08;;;;;;;2.31;76.40;96602.41;5094278;28;20126;-64
2021/01/24 01:43:57;;;;;;;1.00;0.90;;;;;;;2.25;76.18;96616.22;5094200;28;20071;-63
2021/01/24 01:46:26;;;;;;;1.33;1.23;;;;;;;2.20;76.32;96602.94;5094257;28;20033;-64
2021/01/24 01:48:54;;;;;;;1.05;0.98;;;;;;;2.21;76.48;96602.78;5094192;28;20399;-64
2021/01/24 01:51:20;;;;;;;0.75;0.75;;;;;;;2.18;76.74;96615.38;5092548;28;20044;-64
2021/01/24 01:53:53;;;;;;;1.27;1.00;;;;;;;2.14;76.91;96609.75;5094035;28;20070;-64
2021/01/24 01:56:20;;;;;;;1.15;0.98;;;;;;;2.08;77.16;96614.91;5093460;28;20474;-64
2021/01/24 01:58:48;;;;;;;1.77;0.90;;;;;;;2.02;77.43;96621.72;5093660;28;20044;-64
2021/01/24 02:01:25;;;;;;;1.05;0.80;;;;;;;1.95;77.53;96616.44;5092352;28;20056;-64
2021/01/24 02:04:02;;;;;;;1.23;1.13;;;;;;;1.90;77.90;96639.66;5093599;28;20047;-64
2021/01/24 02:06:35;;;;;;;0.90;0.90;;;;;;;1.93;77.76;96633.28;5093394;28;20517;-63
2021/01/24 02:09:14;;;;;;;0.80;0.80;;;;;;;1.97;77.70;96627.50;5092438;28;20048;-64
2021/01/24 02:11:48;;;;;;;0.88;0.88;;;;;;;1.89;77.44;96632.84;5093476;28;20063;-64
2021/01/24 02:14:23;;;;;;;1.40;1.10;;;;;;;1.95;77.64;96646.91;5093283;28;20051;-64
2021/01/24 02:16:50;;;;;;;1.30;1.20;;;;;;;1.92;77.41;96642.91;5093398;28;20559;-64
2021/01/24 02:19:24;;;;;;;1.67;1.10;;;;;;;1.96;77.34;96651.16;5093333;28;20486;-64
2021/01/24 02:21:53;;;;;;;1.63;1.05;;;;;;;1.97;77.41;96655.38;5093255;28;20043;-64
2021/01/24 02:24:23;;;;;;;1.15;1.05;;;;;;;1.93;77.49;96656.75;5092923;28;20048;-64
2021/01/24 02:27:00;;;;;;;1.25;1.17;;;;;;;1.94;77.67;96666.97;5093228;28;20513;-65
2021/01/24 02:29:44;;;;;;;1.40;1.27;;;;;;;1.93;77.31;96669.78;5093170;28;20044;-64
2021/01/24 02:32:16;;;;;;;1.40;1.30;;;;;;;1.98;77.33;96673.41;5092899;28;20048;-64
2021/01/24 02:34:44;;;;;;;1.40;1.30;;;;;;;1.98;76.98;96680.41;5092998;28;20223;-65
2021/01/24 02:37:12;;;;;;;1.50;1.38;;;;;;;1.98;77.05;96688.25;5093074;28;20142;-64
2021/01/24 02:39:40;;;;;;;1.52;1.42;;;;;;;1.96;77.02;96685.81;5093023;28;20044;-64
2021/01/24 02:42:08;;;;;;;1.70;1.60;;;;;;;1.91;76.82;96692.59;5092956;28;20051;-64
2021/01/24 02:44:36;;;;;;;2.10;1.90;;;;;;;1.87;77.06;96693.97;5092410;28;20071;-64
2021/01/24 02:47:03;;;;;;;1.95;1.77;;;;;;;1.90;77.04;96707.41;5092712;28;20512;-64
2021/01/24 02:49:33;;;;;;;1.67;1.58;;;;;;;1.81;76.86;96702.53;5092984;28;20383;-64
2021/01/24 02:52:00;;;;;;;4.30;2.03;;;;;;;1.81;77.05;96713.78;5092682;28;20040;-64
2021/01/24 02:54:28;;;;;;;3.95;2.30;;;;;;;1.85;76.96;96722.81;5092466;28;20044;-63
2021/01/24 02:56:55;;;;;;;3.00;2.30;;;;;;;1.85;76.80;96732.44;5092827;28;20521;-63
2021/01/24 02:59:23;;;;;;;2.63;2.15;;;;;;;1.79;76.50;96741.78;5091817;28;20048;-64
2021/01/24 03:01:50;;;;;;;2.47;2.13;;;;;;;1.75;76.59;96743.16;5092858;28;20104;-63
2021/01/24 03:04:16;;;;;;;2.42;2.22;;;;;;;1.80;76.59;96753.03;5092329;28;20391;-64
2021/01/24 03:06:44;;;;;;;3.60;2.80;;;;;;;1.79;76.39;96752.22;5092795;28;20549;-63
2021/01/24 03:09:11;;;;;;;3.80;2.67;;;;;;;1.77;76.47;96763.84;5092903;28;20042;-64
2021/01/24 03:11:43;;;;;;;3.90;2.80;;;;;;;1.72;76.60;96762.59;5092652;28;20521;-64
2021/01/24 03:14:16;;;;;;;4.55;3.58;;;;;;;1.70;77.29;96766.38;5092312;28;20502;-64
2021/01/24 03:16:46;;;;;;;5.93;3.92;;;;;;;1.63;77.67;96776.75;5092237;28;20047;-64
2021/01/24 03:19:16;;;;;;;6.50;4.53;;;;;;;1.66;78.07;96784.16;5092417;28;20040;-64
2021/01/24 03:21:46;;;;;;;7.15;4.50;;;;;;;1.60;78.02;96778.91;5092342;28;20051;-63
2021/01/24 03:24:14;;;;;;;6.93;5.40;;;;;;;1.60;77.97;96790.13;5091995;28;20044;-64
2021/01/24 03:26:41;;;;;;;7.28;5.10;;;;;;;1.63;78.20;96792.38;5092142;28;20090;-64
2021/01/24 03:29:08;;;;;;;8.93;4.93;;;;;;;1.63;78.09;96787.16;5092275;28;20386;-63
2021/01/24 03:31:34;;;;;;;7.65;5.55;;;;;;;1.66;77.98;96789.38;5092097;28;20528;-65
2021/01/24 03:34:05;;;;;;;7.88;5.75;;;;;;;1.68;77.99;96789.19;5092093;28;20048;-63
2021/01/24 03:36:32;;;;;;;10.80;6.15;;;;;;;1.64;77.54;96806.19;5091819;28;20414;-64
2021/01/24 03:38:59;;;;;;;9.93;6.32;;;;;;;1.58;77.37;96792.09;5092066;28;20063;-64
2021/01/24 03:41:26;;;;;;;11.45;6.53;;;;;;;1.69;77.24;96798.63;5092094;28;20044;-64
2021/01/24 03:43:52;;;;;;;8.52;6.13;;;;;;;1.72;76.70;96809.47;5092435;28;20490;-64
2021/01/24 03:46:19;;;;;;;12.07;6.90;;;;;;;1.73;76.64;96805.06;5095812;28;20387;-64
2021/01/24 03:48:46;;;;;;;13.27;7.18;;;;;;;1.80;76.23;96810.34;5096193;28;20097;-64
2021/01/24 03:51:12;;;;;;;13.98;6.07;;;;;;;1.69;75.54;96822.88;5096062;28;20040;-64
2021/01/24 03:53:39;;;;;;;11.57;6.10;;;;;;;1.70;75.52;96818.47;5096047;28;20052;-64
2021/01/24 03:56:07;;;;;;;11.05;6.72;;;;;;;1.65;75.44;96820.81;5095723;28;20048;-64
2021/01/24 03:58:33;;;;;;;11.90;6.80;;;;;;;1.70;75.52;96824.47;5096081;28;20051;-64
2021/01/24 04:01:00;;;;;;;9.38;6.28;;;;;;;1.68;75.54;96836.09;5096102;28;20040;-63
2021/01/24 04:03:27;;;;;;;10.07;5.80;;;;;;;1.61;75.68;96843.81;5095810;28;20489;-64
2021/01/24 04:05:56;;;;;;;10.65;6.57;;;;;;;1.59;75.30;96838.00;5095414;28;20119;-64
2021/01/24 04:08:23;;;;;;;9.85;6.03;;;;;;;1.58;75.09;96856.41;5095681;28;20394;-63
2021/01/24 04:10:49;;;;;;;8.77;5.93;;;;;;;1.49;74.78;96846.09;5095816;28;20058;-63
2021/01/24 04:13:17;;;;;;;10.52;6.30;;;;;;;1.52;74.77;96842.31;5095806;28;20043;-64
2021/01/24 04:15:43;;;;;;;9.30;6.05;;;;;;;1.56;74.78;96845.38;5095382;28;20520;-63
2021/01/24 04:18:11;;;;;;;10.50;5.97;;;;;;;1.56;74.42;96869.63;5095465;28;20101;-64
2021/01/24 04:20:38;;;;;;;9.05;5.75;;;;;;;1.53;74.08;96869.97;5095562;28;20387;-64
2021/01/24 04:23:05;;;;;;;7.85;5.53;;;;;;;1.49;74.14;96874.72;5094316;28;20051;-64
2021/01/24 04:25:32;;;;;;;9.98;6.53;;;;;;;1.54;74.14;96879.38;5095197;28;20052;-64
2021/01/24 04:27:58;;;;;;;7.05;4.95;;;;;;;1.56;73.92;96887.03;5095382;28;20055;-64
2021/01/24 04:30:26;;;;;;;9.15;5.68;;;;;;;1.53;73.63;96890.00;5095343;28;20051;-63
2021/01/24 04:32:53;;;;;;;8.27;4.60;;;;;;;1.48;73.31;96880.94;5095378;28;20044;-63
2021/01/24 04:35:21;;;;;;;7.75;5.47;;;;;;;1.53;73.23;96893.41;5095012;28;20044;-64
2021/01/24 04:37:48;;;;;;;7.47;5.10;;;;;;;1.50;72.43;96888.56;5095044;28;20126;-63
2021/01/24 04:40:15;;;;;;;9.00;5.22;;;;;;;1.55;72.39;96894.03;5095099;28;20506;-64
2021/01/24 04:42:43;;;;;;;6.03;4.40;;;;;;;1.62;72.07;96897.50;5095057;28;20051;-64
2021/01/24 04:45:11;;;;;;;9.88;4.70;;;;;;;1.47;71.85;96913.19;5094827;28;20090;-63
2021/01/24 04:47:40;;;;;;;9.02;4.85;;;;;;;1.47;71.98;96905.38;5093527;28;20048;-63
2021/01/24 04:50:08;;;;;;;8.13;5.10;;;;;;;1.47;72.04;96923.59;5094832;28;20048;-63
2021/01/24 04:52:35;;;;;;;8.18;4.72;;;;;;;1.45;71.98;96915.13;5094964;28;20044;-63
2021/01/24 04:55:04;;;;;;;9.48;5.18;;;;;;;1.44;72.36;96910.94;5094085;28;20054;-64
2021/01/24 04:57:31;;;;;;;8.13;5.00;;;;;;;1.51;72.58;96910.19;5093276;28;20044;-64
2021/01/24 04:59:58;;;;;;;5.03;4.05;;;;;;;1.49;72.02;96919.00;5094519;28;20047;-63
2021/01/24 05:02:25;;;;;;;7.32;4.18;;;;;;;1.44;71.39;96908.31;5094654;28;20048;-63
2021/01/24 05:04:53;;;;;;;5.60;4.40;;;;;;;1.44;71.34;96925.75;5094323;28;20570;-64
2021/01/24 05:07:20;;;;;;;6.22;3.70;;;;;;;1.36;70.73;96913.63;5094483;28;20040;-63
2021/01/24 05:09:47;;;;;;;6.47;4.00;;;;;;;1.35;70.30;96921.63;5094553;28;20119;-63
2021/01/24 05:12:14;;;;;;;7.28;3.85;;;;;;;1.28;70.42;96923.34;5094574;28;20047;-63
2021/01/24 05:14:41;;;;;;;6.13;4.15;;;;;;;1.35;70.59;96921.63;5094041;28;20460;-63
2021/01/24 05:17:07;;;;;;;4.90;3.95;;;;;;;1.38;70.06;96923.84;5094390;28;20105;-63
2021/01/24 05:19:35;;;;;;;5.30;3.60;;;;;;;1.35;70.07;96922.44;5094436;28;20048;-62
2021/01/24 05:22:05;;;;;;;5.15;4.05;;;;;;;1.32;69.97;96928.00;5094206;28;20152;-63
2021/01/24 05:24:32;;;;;;;8.00;4.40;;;;;;;1.33;70.38;96921.00;5093806;28;20044;-63
2021/01/24 05:27:07;;;;;;;5.88;3.67;;;;;;;1.40;70.28;96934.91;5093962;28;20093;-63
2021/01/24 05:29:36;;;;;;;6.45;4.30;;;;;;;1.40;70.19;96937.50;5092656;28;20493;-63
2021/01/24 05:32:03;;;;;;;6.90;3.90;;;;;;;1.37;70.23;96943.88;5094026;28;20055;-63
2021/01/24 05:34:31;;;;;;;8.80;4.03;;;;;;;1.37;70.29;96943.88;5093996;28;20475;-63
2021/01/24 05:36:58;;;;;;;8.45;4.10;;;;;;;1.35;70.50;96948.47;5093827;28;20046;-64
2021/01/24 05:39:28;;;;;;;8.70;4.35;;;;;;;1.31;70.95;96959.44;5093976;28;20043;-63
2021/01/24 05:41:57;;;;;;;4.57;3.88;;;;;;;1.29;71.16;96954.38;5093819;28;20521;-63
2021/01/24 05:44:25;;;;;;;7.43;4.20;;;;;;;1.27;71.32;96960.78;5093478;28;20402;-63
2021/01/24 05:46:54;;;;;;;7.28;4.60;;;;;;;1.24;71.67;96956.72;5093722;28;20040;-64
2021/01/24 05:49:23;;;;;;;5.93;4.07;;;;;;;1.25;71.68;96968.75;5093733;28;20039;-63
2021/01/24 05:52:03;;;;;;;8.52;4.60;;;;;;;1.15;71.54;96957.78;5093615;28;20040;-63
2021/01/24 05:54:42;;;;;;;7.05;4.38;;;;;;;1.17;71.51;96961.00;5093368;28;20054;-64
2021/01/24 05:57:10;;;;;;;6.57;4.03;;;;;;;1.22;71.30;96977.72;5093563;28;20052;-64
2021/01/24 05:59:51;;;;;;;5.32;3.60;;;;;;;1.22;70.93;96971.69;5094099;28;20463;-64
2021/01/24 06:02:17;;;;;;;4.40;3.92;;;;;;;1.23;70.65;96981.94;5094552;28;20051;-64
2021/01/24 06:04:45;;;;;;;4.15;3.70;;;;;;;1.17;70.56;96989.66;5093292;28;20051;-64
2021/01/24 06:07:12;;;;;;;6.68;4.25;;;;;;;1.20;70.87;96984.09;5091255;28;20409;-64
2021/01/24 06:09:40;;;;;;;5.70;4.47;;;;;;;1.24;71.01;96991.34;5093391;28;20048;-64
2021/01/24 06:12:08;;;;;;;7.93;4.00;;;;;;;1.31;70.79;96994.06;5093324;28;20056;-64
2021/01/24 06:14:38;;;;;;;5.35;3.67;;;;;;;1.27;70.52;96995.41;5093034;28;20052;-64
2021/01/24 06:17:12;;;;;;;5.47;3.65;;;;;;;1.23;70.75;96997.56;5093478;28;20040;-64
2021/01/24 06:19:42;;;;;;;7.35;4.60;;;;;;;1.28;70.85;97001.44;5093574;28;20075;-64
2021/01/24 06:22:13;;;;;;;5.43;4.28;;;;;;;1.34;70.79;97009.31;5092836;28;20417;-64
2021/01/24 06:24:46;;;;;;;6.60;4.32;;;;;;;1.27;70.75;97012.84;5093221;28;20046;-64
2021/01/24 06:27:20;;;;;;;4.75;4.20;;;;;;;1.29;71.15;97013.44;5092875;28;20083;-64
2021/01/24 06:29:50;;;;;;;4.95;4.40;;;;;;;1.33;71.26;97020.72;5092987;28;20048;-64
2021/01/24 06:32:25;;;;;;;5.47;4.35;;;;;;;1.31;71.20;97025.31;5092855;28;20074;-63
2021/01/24 06:34:53;;;;;;;7.00;4.45;;;;;;;1.29;71.14;97031.66;5091420;28;20211;-64
2021/01/24 06:37:21;;;;;;;5.22;4.03;;;;;;;1.27;70.89;97031.84;5091343;28;20044;-63
2021/01/24 06:39:50;;;;;;;5.93;5.00;;;;;;;1.26;70.69;97024.22;5092719;28;20048;-64
2021/01/24 06:42:37;;;;;;;6.15;4.30;;;;;;;1.28;70.64;97024.84;5092880;28;20063;-64
2021/01/24 06:45:06;;;;;;;8.15;4.85;;;;;;;1.22;70.68;97035.00;5092424;28;20048;-64
2021/01/24 06:47:37;;;;;;;5.25;3.97;;;;;;;1.18;70.29;97031.13;5091699;28;20087;-63
2021/01/24 06:50:25;;;;;;;6.50;4.07;;;;;;;1.19;70.53;97039.75;5093124;28;20040;-64
2021/01/24 06:53:03;;;;;;;7.20;4.20;;;;;;;1.17;70.44;97045.09;5092621;28;20054;-64
2021/01/24 06:55:30;;;;;;;6.88;4.28;;;;;;;1.25;70.77;97046.84;5092177;28;20069;-64
2021/01/24 06:57:57;;;;;;;6.35;4.90;;;;;;;1.25;70.78;97052.03;5092226;28;20051;-64
2021/01/24 07:00:25;;;;;;;9.15;5.15;;;;;;;1.26;70.98;97061.44;5092379;28;20050;-64
2021/01/24 07:02:52;;;;;;;6.47;4.65;;;;;;;1.29;71.23;97058.50;5092281;28;20409;-64
2021/01/24 07:05:20;;;;;;;8.23;5.53;;;;;;;1.33;71.33;97067.59;5091889;28;20421;-64
2021/01/24 07:07:48;;;;;;;6.55;4.57;;;;;;;1.24;71.18;97064.25;5092281;28;20105;-64
2021/01/24 07:10:44;;;;;;;7.13;4.82;;;;;;;1.23;71.36;97067.84;5092190;28;20066;-64
2021/01/24 07:13:33;;;;;;;6.53;5.38;;;;;;;1.14;71.61;97081.91;5092175;28;20048;-64
2021/01/24 07:16:01;;;;;;;6.72;4.68;;;;;;;1.06;71.72;97083.75;5091742;28;20051;-64
2021/01/24 07:18:41;;;;;;;10.77;5.55;;;;;;;1.02;72.10;97093.72;5091941;28;20064;-64
2021/01/24 07:21:08;;;;;;;7.90;5.53;;;;;;;0.97;72.29;97104.63;5091828;28;20051;-64
2021/01/24 07:23:37;;;;;;;7.30;5.40;;;;;;;0.98;72.49;97103.66;5092052;28;20118;-64
2021/01/24 07:26:05;;;;;;;7.72;5.15;;;;;;;0.94;72.36;97101.59;5096267;28;20056;-64
2021/01/24 07:28:34;;;;;;;6.78;5.18;;;;;;;0.97;72.73;97116.81;5097031;28;20051;-64
2021/01/24 07:31:03;;;;;;;7.82;5.65;;;;;;;1.00;72.70;97116.50;5098915;28;20048;-64
2021/01/24 07:33:32;;;;;;;6.50;4.72;;;;;;;0.96;72.58;97110.81;5092079;28;20122;-64
2021/01/24 07:36:00;;;;;;;9.60;5.88;;;;;;;1.07;72.88;97124.44;5091426;28;20048;-63
2021/01/24 07:38:27;;;;;;;7.57;5.60;;;;;;;1.06;72.58;97126.22;5091501;28;20111;-64
2021/01/24 07:40:58;;;;;;;7.90;5.70;;;;;;;1.07;72.54;97127.03;5091633;28;20051;-64
2021/01/24 07:43:27;;;;;;;8.05;5.78;;;;;;;1.08;72.75;97137.25;5091649;28;20433;-64
2021/01/24 07:45:55;;;;;;;10.98;5.78;;;;;;;1.13;72.79;97134.94;5091267;28;20048;-64
2021/01/24 07:48:22;;;;;;;7.13;5.70;;;;;;;1.16;72.88;97139.78;5091507;28;20048;-64
2021/01/24 07:50:49;;;;;;;8.82;5.95;;;;;;;1.20;72.86;97148.06;5091462;28;20521;-64
2021/01/24 07:53:15;;;;;;;7.75;5.80;;;;;;;1.25;72.59;97143.16;5091542;28;20571;-64
2021/01/24 07:55:43;;;;;;;6.95;5.22;;;;;;;1.16;72.44;97139.78;5091322;28;20044;-63
2021/01/24 07:58:10;;;;;;;6.88;5.70;;;;;;;1.16;72.42;97146.81;5091425;28;20085;-64
2021/01/24 08:00:40;;;;;;;7.85;5.65;;;;;;;1.09;72.47;97145.88;5091532;28;20451;-63
2021/01/24 08:03:07;;;;;;;9.80;5.93;;;;;;;1.09;72.63;97156.28;5091542;28;20509;-63
2021/01/24 08:05:34;;;;;;;7.22;5.57;;;;;;;1.18;72.51;97157.84;5091254;28;20040;-64
2021/01/24 08:08:01;;;;;;;9.38;5.57;;;;;;;1.07;72.15;97166.88;5091900;28;20400;-63
2021/01/24 08:10:31;;;;;;;9.15;5.15;;;;;;;1.12;72.08;97172.34;5091665;28;20071;-63
2021/01/24 08:12:59;;;;;;;6.65;4.80;;;;;;;1.16;71.73;97175.44;5091471;28;20111;-64
2021/01/24 08:15:26;;;;;;;7.82;5.35;;;;;;;1.17;71.89;97170.03;5091140;28;20063;-63
2021/01/24 08:17:55;;;;;;;11.27;6.18;;;;;;;1.25;71.94;97166.56;5091275;28;20070;-63
2021/01/24 08:20:23;;;;;;;7.70;5.32;;;;;;;1.29;71.62;97177.44;5091471;28;20375;-63
2021/01/24 08:22:50;;;;;;;8.60;5.65;;;;;;;1.28;71.32;97181.84;5090039;28;20056;-63
2021/01/24 08:25:18;;;;;;;6.43;5.65;;;;;;;1.28;71.54;97179.25;5091242;28;20036;-63
2021/01/24 08:27:45;;;;;;;8.32;5.25;;;;;;;1.30;71.50;97190.28;5091190;28;20044;-64
2021/01/24 08:30:14;;;;;;;7.75;5.50;;;;;;;1.34;71.41;97182.94;5092154;28;20040;-62
2021/01/24 08:32:42;;;;;;;9.20;5.47;;;;;;;1.35;71.35;97193.19;5095055;28;20040;-65
2021/01/24 08:35:13;;;;;;;7.00;5.32;;;;;;;1.39;71.20;97196.28;5094821;28;20036;-64
2021/01/24 08:37:40;;;;;;;9.70;5.22;;;;;;;1.27;70.77;97203.66;5094670;28;20149;-62
2021/01/24 08:40:08;;;;;;;8.80;5.95;;;;;;;1.31;70.95;97210.16;5094790;28;20044;-63
2021/01/24 08:42:49;;;;;;;9.00;6.47;;;;;;;1.40;70.68;97203.91;5095473;28;20044;-64
2021/01/24 08:45:19;;;;;;;6.10;5.18;;;;;;;1.39;70.23;97212.69;5094785;28;20501;-63
2021/01/24 08:47:51;;;;;;;11.32;6.18;;;;;;;1.44;70.09;97206.97;5095124;28;20047;-64
2021/01/24 08:50:18;;;;;;;8.80;7.05;;;;;;;1.36;69.86;97215.66;5094895;28;20043;-64
2021/01/24 08:52:53;;;;;;;6.57;5.35;;;;;;;1.41;69.57;97215.13;5094928;28;20052;-64
2021/01/24 08:55:19;;;;;;;;;;;;;;;1.50;69.89;97229.69;5093854;28;20052;-63
2021/01/24 08:57:46;;;;;;;8.32;6.00;;;;;;;1.51;69.62;97230.50;5095199;28;19924;-64
2021/01/24 09:00:14;;;;;;;8.30;6.05;;;;;;;1.55;69.49;97235.22;5099343;28;20055;-64
2021/01/24 09:02:41;;;;;;;8.32;5.90;;;;;;;1.65;69.55;97221.94;5094630;28;20043;-64
2021/01/24 09:05:10;;;;;;;8.65;5.63;;;;;;;1.72;69.29;97241.91;5094517;28;20048;-64
2021/01/24 09:07:40;;;;;;;8.77;5.78;;;;;;;1.69;68.83;97234.44;5094515;28;20044;-64
2021/01/24 09:10:19;;;;;;;7.47;6.18;;;;;;;1.67;68.91;97239.03;5095026;28;20043;-64
2021/01/24 09:12:46;;;;;;;9.95;6.47;;;;;;;1.70;69.12;97240.47;5094461;28;20524;-64
2021/01/24 09:15:14;;;;;;;7.47;5.85;;;;;;;1.68;68.75;97255.47;5094575;28;20043;-63
2021/01/24 09:17:42;;;;;;;7.88;5.70;;;;;;;1.57;68.90;97263.69;5094212;28;20036;-63
2021/01/24 09:20:10;;;;;;;8.40;5.68;;;;;;;1.64;68.90;97251.59;5094246;28;20494;-63
2021/01/24 09:22:38;;;;;;;8.15;5.35;;;;;;;1.61;68.80;97255.34;5094243;28;20050;-63
2021/01/24 09:25:06;;;;;;;7.88;6.13;;;;;;;1.67;68.92;97259.88;5094254;28;20046;-63
2021/01/24 09:27:34;;;;;;;34.47;20.58;;;;;;;1.69;68.62;97268.31;5094982;28;20047;-63
2021/01/24 09:30:02;;;;;;;22.20;11.35;;;;;;;1.59;68.81;97269.50;5094316;28;20051;-63
2021/01/24 09:32:28;;;;;;;31.80;13.73;;;;;;;1.60;69.05;97268.56;5093971;28;20078;-63
2021/01/24 09:34:55;;;;;;;14.40;8.90;;;;;;;1.54;68.97;97272.66;5093553;28;20097;-63
2021/01/24 09:37:22;;;;;;;10.38;6.22;;;;;;;1.52;68.69;97276.41;5093599;28;20036;-64
2021/01/24 09:39:50;;;;;;;10.88;6.03;;;;;;;1.51;68.89;97285.19;5093792;28;20055;-63
2021/01/24 09:42:16;;;;;;;12.10;6.90;;;;;;;1.58;68.92;97286.94;5092576;28;20055;-63
2021/01/24 09:44:43;;;;;;;16.88;9.60;;;;;;;1.52;68.52;97294.66;5093676;28;20047;-64
2021/01/24 09:47:10;;;;;;;9.35;6.25;;;;;;;1.53;68.54;97304.88;5093772;28;20453;-63
2021/01/24 09:49:37;;;;;;;11.82;5.82;;;;;;;1.57;68.68;97306.16;5093710;28;20117;-62
2021/01/24 09:52:04;;;;;;;7.40;5.78;;;;;;;1.55;68.56;97313.34;5093694;28;20052;-63
2021/01/24 09:54:31;;;;;;;9.57;6.47;;;;;;;1.59;68.50;97316.41;5093633;28;20044;-64
2021/01/24 09:56:59;;;;;;;7.32;6.20;;;;;;;1.68;68.46;97318.00;5093657;28;20047;-64
2021/01/24 09:59:25;;;;;;;10.15;5.80;;;;;;;1.74;68.36;97317.28;5093657;28;20036;-64
2021/01/24 10:01:52;;;;;;;8.27;5.50;;;;;;;1.84;67.90;97328.31;5093756;28;20410;-64
2021/01/24 10:04:19;;;;;;;9.55;5.90;;;;;;;1.81;67.87;97323.44;5093609;28;20039;-64
2021/01/24 10:06:46;;;;;;;7.40;5.70;;;;;;;1.95;68.16;97329.69;5093665;28;20529;-64
2021/01/24 10:09:12;;;;;;;8.80;5.57;;;;;;;1.97;67.67;97327.72;5093705;28;20038;-64
2021/01/24 10:11:39;;;;;;;6.97;5.13;;;;;;;2.04;67.27;97330.44;5093711;28;20174;-64
2021/01/24 10:14:06;;;;;;;6.32;4.70;;;;;;;2.03;66.85;97336.63;5093514;28;20048;-63
2021/01/24 10:16:33;;;;;;;7.95;5.13;;;;;;;2.03;67.04;97334.84;5093325;28;20118;-64
2021/01/24 10:19:00;;;;;;;7.75;5.50;;;;;;;2.13;66.98;97337.22;5093300;28;20071;-64
2021/01/24 10:21:27;;;;;;;7.45;4.70;;;;;;;2.30;66.82;97343.13;5093208;28;20052;-64
2021/01/24 10:23:53;;;;;;;8.23;5.25;;;;;;;2.37;66.59;97350.06;5097879;28;20093;-64
2021/01/24 10:26:20;;;;;;;7.18;5.13;;;;;;;2.41;66.38;97348.72;5093000;28;20047;-64
2021/01/24 10:28:46;;;;;;;8.90;5.38;;;;;;;2.53;66.00;97354.34;5093236;28;20040;-64
2021/01/24 10:31:14;;;;;;;8.30;5.30;;;;;;;2.66;65.63;97351.13;5092861;28;20054;-64
2021/01/24 10:33:41;;;;;;;6.32;4.80;;;;;;;2.56;65.48;97355.75;5094797;28;20044;-64
2021/01/24 10:36:09;;;;;;;6.97;5.13;;;;;;;2.52;65.48;97354.50;5093786;28;20048;-64
2021/01/24 10:38:35;;;;;;;8.15;5.30;;;;;;;2.39;65.27;97368.94;5092768;28;20530;-64
2021/01/24 10:41:02;;;;;;;9.25;5.97;;;;;;;2.40;65.46;97359.31;5092858;28;20047;-64
2021/01/24 10:43:29;;;;;;;10.70;6.93;;;;;;;2.38;65.43;97371.75;5092748;28;20040;-64
2021/01/24 10:45:55;;;;;;;10.98;6.15;;;;;;;2.37;65.40;97377.94;5092353;28;20058;-64
2021/01/24 10:48:23;;;;;;;6.72;4.78;;;;;;;2.38;65.19;97374.34;5092598;28;20055;-64
2021/01/24 10:50:50;;;;;;;7.25;5.07;;;;;;;2.43;65.03;97374.63;5092575;28;20062;-64
2021/01/24 10:53:16;;;;;;;8.45;5.13;;;;;;;2.38;65.16;97369.94;5092242;28;20060;-64
2021/01/24 10:55:43;;;;;;;7.13;4.70;;;;;;;2.45;65.29;97385.72;5092260;28;20044;-64
2021/01/24 10:58:10;;;;;;;8.45;5.05;;;;;;;2.49;65.03;97379.16;5092342;28;20035;-64
2021/01/24 11:00:37;;;;;;;8.82;5.47;;;;;;;2.53;65.29;97395.22;5092318;28;20044;-64
2021/01/24 11:03:04;;;;;;;10.35;6.68;;;;;;;2.60;65.43;97393.56;5092710;28;20443;-64
2021/01/24 11:05:32;;;;;;;9.02;5.78;;;;;;;2.66;65.41;97395.47;5092014;28;20043;-64
2021/01/24 11:07:59;;;;;;;11.00;6.47;;;;;;;2.64;64.66;97392.22;5092311;28;20081;-64
2021/01/24 11:10:26;;;;;;;8.27;5.00;;;;;;;2.53;64.93;97401.28;5092255;28;20044;-64
2021/01/24 11:12:53;;;;;;;9.13;6.10;;;;;;;2.53;65.13;97405.66;5092272;28;20040;-64
2021/01/24 11:15:19;;;;;;;11.30;5.65;;;;;;;2.63;64.97;97409.66;5092070;28;20409;-65
2021/01/24 11:17:46;;;;;;;8.93;5.30;;;;;;;2.60;64.63;97404.00;5092174;28;20116;-64
2021/01/24 11:20:13;;;;;;;10.07;5.55;;;;;;;2.55;64.74;97412.34;5091012;28;20040;-64
2021/01/24 11:22:41;;;;;;;9.65;5.85;;;;;;;2.53;64.75;97411.72;5092185;28;20409;-64
2021/01/24 11:25:10;;;;;;;12.80;5.70;;;;;;;2.58;64.48;97417.22;5091732;28;20040;-64
2021/01/24 11:27:41;;;;;;;7.70;5.43;;;;;;;2.65;64.43;97420.75;5091893;28;20067;-64
2021/01/24 11:30:10;;;;;;;10.95;5.20;;;;;;;2.73;63.67;97425.91;5092029;28;20040;-64
2021/01/24 11:32:37;;;;;;;10.18;5.65;;;;;;;2.68;64.05;97417.78;5092146;28;20095;-64
2021/01/24 11:35:09;;;;;;;9.63;4.85;;;;;;;2.73;64.00;97427.69;5091770;28;20048;-64
2021/01/24 11:37:37;;;;;;;14.20;5.05;;;;;;;2.65;64.06;97430.34;5091833;28;20044;-64
2021/01/24 11:40:06;;;;;;;9.45;4.78;;;;;;;2.72;63.86;97428.66;5091922;28;20525;-64
2021/01/24 11:42:32;;;;;;;8.55;4.68;;;;;;;2.78;63.65;97435.81;5092096;28;20048;-64
2021/01/24 11:44:59;;;;;;;9.65;5.05;;;;;;;2.83;63.30;97432.66;5090391;28;20516;-64
2021/01/24 11:47:26;;;;;;;11.57;5.00;;;;;;;2.86;63.32;97435.75;5092005;28;20047;-64